sensor_id;sensor_type;location;lat;lon;timestamp;P1;durP1;ratioP1;P2;durP2;ratioP2
72087;SDS011;59961;50.232;8.616;2023-08-01T00:02:06;6.30;;;2.55;;
72087;SDS011;59961;50.232;8.616;2023-08-01T00:04:31;6.53;;;2.70;;
72087;SDS011;59961;50.232;8.616;2023-08-01T00:06:56;7.07;;;2.50;;
72087;SDS011;59961;50.232;8.616;2023-08-01T00:09:21;5.77;;;2.27;;
72087;SDS011;59961;50.232;8.616;2023-08-01T00:11:47;5.20;;;2.33;;
72087;SDS011;59961;50.232;8.616;2023-08-01T00:14:12;7.78;;;2.65;;
72087;SDS011;59961;50.232;8.616;2023-08-01T00:16:37;6.28;;;2.33;;
72087;SDS011;59961;50.232;8.616;2023-08-01T00:19:02;8.07;;;2.27;;
72087;SDS011;59961;50.232;8.616;2023-08-01T00:21:27;6.80;;;2.30;;
72087;SDS011;59961;50.232;8.616;2023-08-01T00:23:52;4.53;;;1.63;;
72087;SDS011;59961;50.232;8.616;2023-08-01T00:26:19;5.60;;;2.00;;
72087;SDS011;59961;50.232;8.616;2023-08-01T00:28:44;5.90;;;2.27;;
72087;SDS011;59961;50.232;8.616;2023-08-01T00:31:09;4.57;;;1.83;;
72087;SDS011;59961;50.232;8.616;2023-08-01T00:33:34;4.27;;;2.07;;
72087;SDS011;59961;50.232;8.616;2023-08-01T00:36:00;4.43;;;2.00;;
72087;SDS011;59961;50.232;8.616;2023-08-01T00:38:25;4.90;;;2.10;;
72087;SDS011;59961;50.232;8.616;2023-08-01T00:40:50;7.57;;;2.00;;
72087;SDS011;59961;50.232;8.616;2023-08-01T00:43:16;5.05;;;2.00;;
72087;SDS011;59961;50.232;8.616;2023-08-01T00:45:41;4.93;;;1.90;;
72087;SDS011;59961;50.232;8.616;2023-08-01T00:48:06;5.40;;;2.33;;
72087;SDS011;59961;50.232;8.616;2023-08-01T00:50:31;5.00;;;2.17;;
72087;SDS011;59961;50.232;8.616;2023-08-01T00:52:56;5.63;;;2.20;;
72087;SDS011;59961;50.232;8.616;2023-08-01T00:55:22;7.17;;;2.53;;
72087;SDS011;59961;50.232;8.616;2023-08-01T00:57:48;5.85;;;2.15;;
72087;SDS011;59961;50.232;8.616;2023-08-01T01:00:13;5.93;;;2.20;;
72087;SDS011;59961;50.232;8.616;2023-08-01T01:02:38;7.13;;;2.37;;
72087;SDS011;59961;50.232;8.616;2023-08-01T01:05:04;7.10;;;2.00;;
72087;SDS011;59961;50.232;8.616;2023-08-01T01:07:30;7.88;;;2.80;;
72087;SDS011;59961;50.232;8.616;2023-08-01T01:09:55;5.22;;;2.00;;
72087;SDS011;59961;50.232;8.616;2023-08-01T01:12:21;5.63;;;2.20;;
72087;SDS011;59961;50.232;8.616;2023-08-01T01:14:46;7.07;;;1.88;;
72087;SDS011;59961;50.232;8.616;2023-08-01T01:17:11;4.10;;;1.60;;
72087;SDS011;59961;50.232;8.616;2023-08-01T01:19:36;5.30;;;1.93;;
72087;SDS011;59961;50.232;8.616;2023-08-01T01:22:03;5.80;;;2.10;;
72087;SDS011;59961;50.232;8.616;2023-08-01T01:24:29;4.68;;;1.80;;
72087;SDS011;59961;50.232;8.616;2023-08-01T01:26:54;4.07;;;1.87;;
72087;SDS011;59961;50.232;8.616;2023-08-01T01:29:21;4.95;;;1.88;;
72087;SDS011;59961;50.232;8.616;2023-08-01T01:31:47;5.47;;;1.95;;
72087;SDS011;59961;50.232;8.616;2023-08-01T01:34:13;4.20;;;1.95;;
72087;SDS011;59961;50.232;8.616;2023-08-01T01:36:38;3.50;;;1.37;;
72087;SDS011;59961;50.232;8.616;2023-08-01T01:39:04;5.57;;;2.10;;
72087;SDS011;59961;50.232;8.616;2023-08-01T01:41:29;4.33;;;1.50;;
72087;SDS011;59961;50.232;8.616;2023-08-01T01:43:54;4.57;;;2.10;;
72087;SDS011;59961;50.232;8.616;2023-08-01T01:46:19;3.80;;;1.70;;
72087;SDS011;59961;50.232;8.616;2023-08-01T01:48:44;4.72;;;1.73;;
72087;SDS011;59961;50.232;8.616;2023-08-01T01:51:09;5.40;;;2.10;;
72087;SDS011;59961;50.232;8.616;2023-08-01T01:53:34;6.43;;;2.10;;
72087;SDS011;59961;50.232;8.616;2023-08-01T01:56:00;4.73;;;1.80;;
72087;SDS011;59961;50.232;8.616;2023-08-01T01:58:25;5.40;;;1.93;;
72087;SDS011;59961;50.232;8.616;2023-08-01T02:00:50;6.35;;;1.85;;
72087;SDS011;59961;50.232;8.616;2023-08-01T02:03:15;4.90;;;2.15;;
72087;SDS011;59961;50.232;8.616;2023-08-01T02:05:40;3.70;;;1.55;;
72087;SDS011;59961;50.232;8.616;2023-08-01T02:08:06;6.50;;;2.23;;
72087;SDS011;59961;50.232;8.616;2023-08-01T02:10:31;6.90;;;2.47;;
72087;SDS011;59961;50.232;8.616;2023-08-01T02:12:56;5.53;;;1.87;;
72087;SDS011;59961;50.232;8.616;2023-08-01T02:15:21;5.57;;;2.10;;
72087;SDS011;59961;50.232;8.616;2023-08-01T02:17:47;6.27;;;2.63;;
72087;SDS011;59961;50.232;8.616;2023-08-01T02:20:12;5.53;;;2.27;;
72087;SDS011;59961;50.232;8.616;2023-08-01T02:22:37;5.03;;;2.00;;
72087;SDS011;59961;50.232;8.616;2023-08-01T02:25:02;8.57;;;2.70;;
72087;SDS011;59961;50.232;8.616;2023-08-01T02:27:27;7.73;;;2.63;;
72087;SDS011;59961;50.232;8.616;2023-08-01T02:29:53;6.70;;;2.38;;
72087;SDS011;59961;50.232;8.616;2023-08-01T02:32:18;6.23;;;2.57;;
72087;SDS011;59961;50.232;8.616;2023-08-01T02:34:43;6.40;;;2.53;;
72087;SDS011;59961;50.232;8.616;2023-08-01T02:37:08;6.85;;;2.70;;
72087;SDS011;59961;50.232;8.616;2023-08-01T02:39:34;6.90;;;2.67;;
72087;SDS011;59961;50.232;8.616;2023-08-01T02:41:59;6.47;;;2.53;;
72087;SDS011;59961;50.232;8.616;2023-08-01T02:44:25;7.40;;;2.77;;
72087;SDS011;59961;50.232;8.616;2023-08-01T02:46:50;6.07;;;2.28;;
72087;SDS011;59961;50.232;8.616;2023-08-01T02:49:16;7.37;;;2.60;;
72087;SDS011;59961;50.232;8.616;2023-08-01T02:51:41;6.72;;;2.78;;
72087;SDS011;59961;50.232;8.616;2023-08-01T02:54:06;7.40;;;2.70;;
72087;SDS011;59961;50.232;8.616;2023-08-01T02:56:31;8.17;;;2.30;;
72087;SDS011;59961;50.232;8.616;2023-08-01T02:58:56;7.18;;;2.65;;
72087;SDS011;59961;50.232;8.616;2023-08-01T03:01:22;5.85;;;2.20;;
72087;SDS011;59961;50.232;8.616;2023-08-01T03:03:47;5.63;;;2.43;;
72087;SDS011;59961;50.232;8.616;2023-08-01T03:06:12;5.30;;;2.07;;
72087;SDS011;59961;50.232;8.616;2023-08-01T03:08:37;4.90;;;1.87;;
72087;SDS011;59961;50.232;8.616;2023-08-01T03:11:02;5.53;;;2.10;;
72087;SDS011;59961;50.232;8.616;2023-08-01T03:13:28;5.43;;;1.80;;
72087;SDS011;59961;50.232;8.616;2023-08-01T03:15:53;5.13;;;2.17;;
72087;SDS011;59961;50.232;8.616;2023-08-01T03:18:18;4.20;;;1.77;;
72087;SDS011;59961;50.232;8.616;2023-08-01T03:20:43;5.20;;;2.05;;
72087;SDS011;59961;50.232;8.616;2023-08-01T03:23:08;4.38;;;1.60;;
72087;SDS011;59961;50.232;8.616;2023-08-01T03:25:34;4.40;;;2.00;;
72087;SDS011;59961;50.232;8.616;2023-08-01T03:27:59;4.10;;;1.63;;
72087;SDS011;59961;50.232;8.616;2023-08-01T03:30:24;5.07;;;1.83;;
72087;SDS011;59961;50.232;8.616;2023-08-01T03:32:49;8.03;;;2.23;;
72087;SDS011;59961;50.232;8.616;2023-08-01T03:35:14;6.53;;;2.25;;
72087;SDS011;59961;50.232;8.616;2023-08-01T03:37:40;6.93;;;2.17;;
72087;SDS011;59961;50.232;8.616;2023-08-01T03:40:05;5.83;;;2.10;;
72087;SDS011;59961;50.232;8.616;2023-08-01T03:42:33;4.13;;;2.00;;
72087;SDS011;59961;50.232;8.616;2023-08-01T03:44:58;4.63;;;2.20;;
72087;SDS011;59961;50.232;8.616;2023-08-01T03:47:23;5.47;;;2.20;;
72087;SDS011;59961;50.232;8.616;2023-08-01T03:49:49;4.33;;;2.00;;
72087;SDS011;59961;50.232;8.616;2023-08-01T03:52:14;5.05;;;1.83;;
72087;SDS011;59961;50.232;8.616;2023-08-01T03:54:39;6.53;;;1.90;;
72087;SDS011;59961;50.232;8.616;2023-08-01T03:57:04;5.80;;;2.08;;
72087;SDS011;59961;50.232;8.616;2023-08-01T03:59:29;4.83;;;1.73;;
72087;SDS011;59961;50.232;8.616;2023-08-01T04:01:54;4.43;;;1.88;;
72087;SDS011;59961;50.232;8.616;2023-08-01T04:04:20;5.53;;;1.80;;
72087;SDS011;59961;50.232;8.616;2023-08-01T04:06:45;4.70;;;1.92;;
72087;SDS011;59961;50.232;8.616;2023-08-01T04:09:10;4.17;;;1.40;;
72087;SDS011;59961;50.232;8.616;2023-08-01T04:11:35;5.00;;;1.80;;
72087;SDS011;59961;50.232;8.616;2023-08-01T04:14:00;4.97;;;1.80;;
72087;SDS011;59961;50.232;8.616;2023-08-01T04:16:26;5.50;;;1.93;;
72087;SDS011;59961;50.232;8.616;2023-08-01T04:18:51;4.35;;;1.80;;
72087;SDS011;59961;50.232;8.616;2023-08-01T04:21:18;5.13;;;1.70;;
72087;SDS011;59961;50.232;8.616;2023-08-01T04:23:43;5.38;;;1.90;;
72087;SDS011;59961;50.232;8.616;2023-08-01T04:26:08;7.50;;;1.90;;
72087;SDS011;59961;50.232;8.616;2023-08-01T04:28:33;5.10;;;1.80;;
72087;SDS011;59961;50.232;8.616;2023-08-01T04:31:00;4.30;;;1.47;;
72087;SDS011;59961;50.232;8.616;2023-08-01T04:33:25;4.18;;;1.70;;
72087;SDS011;59961;50.232;8.616;2023-08-01T04:35:51;3.67;;;1.40;;
72087;SDS011;59961;50.232;8.616;2023-08-01T04:38:16;4.63;;;1.30;;
72087;SDS011;59961;50.232;8.616;2023-08-01T04:40:41;4.23;;;1.27;;
72087;SDS011;59961;50.232;8.616;2023-08-01T04:43:06;3.38;;;1.35;;
72087;SDS011;59961;50.232;8.616;2023-08-01T04:45:31;4.15;;;1.33;;
72087;SDS011;59961;50.232;8.616;2023-08-01T04:47:56;3.60;;;1.55;;
72087;SDS011;59961;50.232;8.616;2023-08-01T04:50:21;3.00;;;1.07;;
72087;SDS011;59961;50.232;8.616;2023-08-01T04:52:47;5.97;;;1.63;;
72087;SDS011;59961;50.232;8.616;2023-08-01T04:55:12;3.07;;;1.50;;
72087;SDS011;59961;50.232;8.616;2023-08-01T04:57:37;4.25;;;1.33;;
72087;SDS011;59961;50.232;8.616;2023-08-01T05:00:03;4.20;;;1.40;;
72087;SDS011;59961;50.232;8.616;2023-08-01T05:02:28;4.05;;;1.30;;
72087;SDS011;59961;50.232;8.616;2023-08-01T05:04:53;3.40;;;1.17;;
72087;SDS011;59961;50.232;8.616;2023-08-01T05:07:18;1.70;;;0.82;;
72087;SDS011;59961;50.232;8.616;2023-08-01T05:09:43;3.13;;;1.13;;
72087;SDS011;59961;50.232;8.616;2023-08-01T05:12:09;3.00;;;0.80;;
72087;SDS011;59961;50.232;8.616;2023-08-01T05:14:34;5.33;;;1.33;;
72087;SDS011;59961;50.232;8.616;2023-08-01T05:16:59;3.10;;;1.10;;
72087;SDS011;59961;50.232;8.616;2023-08-01T05:19:24;3.30;;;1.10;;
72087;SDS011;59961;50.232;8.616;2023-08-01T05:21:49;2.33;;;1.05;;
72087;SDS011;59961;50.232;8.616;2023-08-01T05:24:14;3.37;;;1.23;;
72087;SDS011;59961;50.232;8.616;2023-08-01T05:26:40;4.47;;;1.05;;
72087;SDS011;59961;50.232;8.616;2023-08-01T05:29:05;4.25;;;1.48;;
72087;SDS011;59961;50.232;8.616;2023-08-01T05:31:30;3.88;;;1.30;;
72087;SDS011;59961;50.232;8.616;2023-08-01T05:33:55;5.27;;;1.60;;
72087;SDS011;59961;50.232;8.616;2023-08-01T05:36:20;3.28;;;1.17;;
72087;SDS011;59961;50.232;8.616;2023-08-01T05:38:46;3.87;;;1.27;;
72087;SDS011;59961;50.232;8.616;2023-08-01T05:41:11;3.03;;;1.15;;
72087;SDS011;59961;50.232;8.616;2023-08-01T05:43:36;3.63;;;1.23;;
72087;SDS011;59961;50.232;8.616;2023-08-01T05:46:01;6.03;;;1.57;;
72087;SDS011;59961;50.232;8.616;2023-08-01T05:48:26;2.80;;;1.30;;
72087;SDS011;59961;50.232;8.616;2023-08-01T05:50:52;3.60;;;1.00;;
72087;SDS011;59961;50.232;8.616;2023-08-01T05:53:20;3.65;;;1.20;;
72087;SDS011;59961;50.232;8.616;2023-08-01T05:55:45;2.67;;;1.17;;
72087;SDS011;59961;50.232;8.616;2023-08-01T05:58:10;15.03;;;2.03;;
72087;SDS011;59961;50.232;8.616;2023-08-01T06:00:35;3.73;;;0.90;;
72087;SDS011;59961;50.232;8.616;2023-08-01T06:03:01;1.90;;;0.60;;
72087;SDS011;59961;50.232;8.616;2023-08-01T06:05:26;2.20;;;0.70;;
72087;SDS011;59961;50.232;8.616;2023-08-01T06:07:51;1.00;;;0.50;;
72087;SDS011;59961;50.232;8.616;2023-08-01T06:10:16;1.50;;;0.60;;
72087;SDS011;59961;50.232;8.616;2023-08-01T06:12:41;2.00;;;0.67;;
72087;SDS011;59961;50.232;8.616;2023-08-01T06:15:07;2.03;;;0.90;;
72087;SDS011;59961;50.232;8.616;2023-08-01T06:17:32;1.40;;;0.60;;
72087;SDS011;59961;50.232;8.616;2023-08-01T06:19:57;1.80;;;0.90;;
72087;SDS011;59961;50.232;8.616;2023-08-01T06:22:22;1.40;;;0.60;;
72087;SDS011;59961;50.232;8.616;2023-08-01T06:24:47;1.30;;;0.80;;
72087;SDS011;59961;50.232;8.616;2023-08-01T06:27:12;2.35;;;0.90;;
72087;SDS011;59961;50.232;8.616;2023-08-01T06:29:39;3.50;;;0.97;;
72087;SDS011;59961;50.232;8.616;2023-08-01T06:32:05;1.52;;;0.70;;
72087;SDS011;59961;50.232;8.616;2023-08-01T06:34:30;2.40;;;1.05;;
72087;SDS011;59961;50.232;8.616;2023-08-01T06:36:55;2.57;;;0.90;;
72087;SDS011;59961;50.232;8.616;2023-08-01T06:39:21;1.63;;;0.80;;
72087;SDS011;59961;50.232;8.616;2023-08-01T06:41:46;5.40;;;0.98;;
72087;SDS011;59961;50.232;8.616;2023-08-01T06:44:11;10.05;;;1.35;;
72087;SDS011;59961;50.232;8.616;2023-08-01T06:46:36;1.83;;;1.00;;
72087;SDS011;59961;50.232;8.616;2023-08-01T06:49:01;2.20;;;1.15;;
72087;SDS011;59961;50.232;8.616;2023-08-01T06:51:26;2.73;;;1.20;;
72087;SDS011;59961;50.232;8.616;2023-08-01T06:53:51;2.27;;;1.33;;
72087;SDS011;59961;50.232;8.616;2023-08-01T06:56:17;6.40;;;1.30;;
72087;SDS011;59961;50.232;8.616;2023-08-01T06:58:42;3.33;;;1.43;;
72087;SDS011;59961;50.232;8.616;2023-08-01T07:01:07;3.90;;;1.33;;
72087;SDS011;59961;50.232;8.616;2023-08-01T07:03:32;4.05;;;1.48;;
72087;SDS011;59961;50.232;8.616;2023-08-01T07:05:57;5.03;;;1.83;;
72087;SDS011;59961;50.232;8.616;2023-08-01T07:08:23;2.97;;;1.10;;
72087;SDS011;59961;50.232;8.616;2023-08-01T07:10:48;1.97;;;1.03;;
72087;SDS011;59961;50.232;8.616;2023-08-01T07:13:15;3.05;;;1.33;;
72087;SDS011;59961;50.232;8.616;2023-08-01T07:15:41;3.60;;;1.40;;
72087;SDS011;59961;50.232;8.616;2023-08-01T07:18:07;3.30;;;1.07;;
72087;SDS011;59961;50.232;8.616;2023-08-01T07:20:32;3.10;;;1.40;;
72087;SDS011;59961;50.232;8.616;2023-08-01T07:22:57;6.38;;;1.73;;
72087;SDS011;59961;50.232;8.616;2023-08-01T07:25:22;3.60;;;1.23;;
72087;SDS011;59961;50.232;8.616;2023-08-01T07:27:50;4.22;;;1.58;;
72087;SDS011;59961;50.232;8.616;2023-08-01T07:30:15;3.17;;;1.57;;
72087;SDS011;59961;50.232;8.616;2023-08-01T07:32:40;4.87;;;1.60;;
72087;SDS011;59961;50.232;8.616;2023-08-01T07:35:07;2.55;;;1.33;;
72087;SDS011;59961;50.232;8.616;2023-08-01T07:37:35;3.30;;;1.33;;
72087;SDS011;59961;50.232;8.616;2023-08-01T07:40:02;3.03;;;1.20;;
72087;SDS011;59961;50.232;8.616;2023-08-01T07:42:27;2.57;;;1.40;;
72087;SDS011;59961;50.232;8.616;2023-08-01T07:44:53;5.10;;;1.50;;
72087;SDS011;59961;50.232;8.616;2023-08-01T07:47:19;7.38;;;1.70;;
72087;SDS011;59961;50.232;8.616;2023-08-01T07:49:44;3.60;;;1.38;;
72087;SDS011;59961;50.232;8.616;2023-08-01T07:52:09;3.13;;;1.47;;
72087;SDS011;59961;50.232;8.616;2023-08-01T07:54:35;5.37;;;1.30;;
72087;SDS011;59961;50.232;8.616;2023-08-01T07:57:00;4.95;;;1.52;;
72087;SDS011;59961;50.232;8.616;2023-08-01T07:59:25;3.30;;;1.27;;
72087;SDS011;59961;50.232;8.616;2023-08-01T08:01:50;3.63;;;1.50;;
72087;SDS011;59961;50.232;8.616;2023-08-01T08:04:16;2.33;;;0.90;;
72087;SDS011;59961;50.232;8.616;2023-08-01T08:06:41;4.43;;;1.30;;
72087;SDS011;59961;50.232;8.616;2023-08-01T08:09:06;3.60;;;1.38;;
72087;SDS011;59961;50.232;8.616;2023-08-01T08:11:31;3.27;;;0.90;;
72087;SDS011;59961;50.232;8.616;2023-08-01T08:13:57;5.82;;;1.35;;
72087;SDS011;59961;50.232;8.616;2023-08-01T08:16:23;1.88;;;0.88;;
72087;SDS011;59961;50.232;8.616;2023-08-01T08:18:48;3.53;;;1.40;;
72087;SDS011;59961;50.232;8.616;2023-08-01T08:21:13;3.60;;;1.10;;
72087;SDS011;59961;50.232;8.616;2023-08-01T08:23:38;2.97;;;1.40;;
72087;SDS011;59961;50.232;8.616;2023-08-01T08:26:06;4.50;;;1.25;;
72087;SDS011;59961;50.232;8.616;2023-08-01T08:28:32;4.37;;;1.30;;
72087;SDS011;59961;50.232;8.616;2023-08-01T08:30:59;3.40;;;1.30;;
72087;SDS011;59961;50.232;8.616;2023-08-01T08:33:24;3.17;;;1.08;;
72087;SDS011;59961;50.232;8.616;2023-08-01T08:35:49;3.97;;;1.37;;
72087;SDS011;59961;50.232;8.616;2023-08-01T08:38:15;2.67;;;1.37;;
72087;SDS011;59961;50.232;8.616;2023-08-01T08:40:40;5.33;;;1.90;;
72087;SDS011;59961;50.232;8.616;2023-08-01T08:43:06;4.22;;;1.45;;
72087;SDS011;59961;50.232;8.616;2023-08-01T08:45:34;3.78;;;1.73;;
72087;SDS011;59961;50.232;8.616;2023-08-01T08:48:01;3.07;;;1.17;;
72087;SDS011;59961;50.232;8.616;2023-08-01T08:50:26;4.57;;;1.60;;
72087;SDS011;59961;50.232;8.616;2023-08-01T08:52:52;3.93;;;1.30;;
72087;SDS011;59961;50.232;8.616;2023-08-01T08:55:17;3.57;;;1.30;;
72087;SDS011;59961;50.232;8.616;2023-08-01T08:57:46;5.82;;;1.60;;
72087;SDS011;59961;50.232;8.616;2023-08-01T09:00:15;5.60;;;1.70;;
72087;SDS011;59961;50.232;8.616;2023-08-01T09:02:40;4.63;;;1.20;;
72087;SDS011;59961;50.232;8.616;2023-08-01T09:05:06;5.13;;;1.10;;
72087;SDS011;59961;50.232;8.616;2023-08-01T09:07:31;2.92;;;1.25;;
72087;SDS011;59961;50.232;8.616;2023-08-01T09:09:58;3.43;;;1.20;;
72087;SDS011;59961;50.232;8.616;2023-08-01T09:12:23;5.05;;;1.33;;
72087;SDS011;59961;50.232;8.616;2023-08-01T09:14:52;3.30;;;1.40;;
72087;SDS011;59961;50.232;8.616;2023-08-01T09:17:17;3.53;;;1.50;;
72087;SDS011;59961;50.232;8.616;2023-08-01T09:19:43;2.40;;;0.90;;
72087;SDS011;59961;50.232;8.616;2023-08-01T09:22:12;2.60;;;0.90;;
72087;SDS011;59961;50.232;8.616;2023-08-01T09:24:37;2.95;;;0.80;;
72087;SDS011;59961;50.232;8.616;2023-08-01T09:27:03;2.87;;;1.50;;
72087;SDS011;59961;50.232;8.616;2023-08-01T09:29:33;4.43;;;1.10;;
72087;SDS011;59961;50.232;8.616;2023-08-01T09:31:58;3.63;;;1.17;;
72087;SDS011;59961;50.232;8.616;2023-08-01T09:34:24;2.35;;;1.17;;
72087;SDS011;59961;50.232;8.616;2023-08-01T09:36:50;2.15;;;1.02;;
72087;SDS011;59961;50.232;8.616;2023-08-01T09:39:16;2.87;;;1.13;;
72087;SDS011;59961;50.232;8.616;2023-08-01T09:41:41;3.30;;;1.15;;
72087;SDS011;59961;50.232;8.616;2023-08-01T09:44:10;3.33;;;1.20;;
72087;SDS011;59961;50.232;8.616;2023-08-01T09:46:35;3.33;;;1.35;;
72087;SDS011;59961;50.232;8.616;2023-08-01T09:49:10;3.07;;;1.10;;
72087;SDS011;59961;50.232;8.616;2023-08-01T09:51:45;1.75;;;0.90;;
72087;SDS011;59961;50.232;8.616;2023-08-01T09:54:11;3.35;;;1.10;;
72087;SDS011;59961;50.232;8.616;2023-08-01T09:56:36;2.55;;;0.93;;
72087;SDS011;59961;50.232;8.616;2023-08-01T09:59:01;1.37;;;0.77;;
72087;SDS011;59961;50.232;8.616;2023-08-01T10:01:26;1.97;;;1.10;;
72087;SDS011;59961;50.232;8.616;2023-08-01T10:03:53;2.25;;;1.02;;
72087;SDS011;59961;50.232;8.616;2023-08-01T10:06:21;2.77;;;1.07;;
72087;SDS011;59961;50.232;8.616;2023-08-01T10:08:48;2.85;;;1.10;;
72087;SDS011;59961;50.232;8.616;2023-08-01T10:11:17;2.58;;;1.02;;
72087;SDS011;59961;50.232;8.616;2023-08-01T10:13:42;4.27;;;1.37;;
72087;SDS011;59961;50.232;8.616;2023-08-01T10:16:08;2.25;;;1.10;;
72087;SDS011;59961;50.232;8.616;2023-08-01T10:18:33;1.70;;;0.90;;
72087;SDS011;59961;50.232;8.616;2023-08-01T10:20:59;2.58;;;1.20;;
72087;SDS011;59961;50.232;8.616;2023-08-01T10:23:25;3.77;;;1.27;;
72087;SDS011;59961;50.232;8.616;2023-08-01T10:25:50;3.28;;;1.20;;
72087;SDS011;59961;50.232;8.616;2023-08-01T10:28:16;2.10;;;1.10;;
72087;SDS011;59961;50.232;8.616;2023-08-01T10:30:41;2.45;;;1.20;;
72087;SDS011;59961;50.232;8.616;2023-08-01T10:33:06;3.00;;;1.10;;
72087;SDS011;59961;50.232;8.616;2023-08-01T10:35:37;3.33;;;1.10;;
72087;SDS011;59961;50.232;8.616;2023-08-01T10:38:03;4.27;;;1.40;;
72087;SDS011;59961;50.232;8.616;2023-08-01T10:40:35;2.90;;;1.17;;
72087;SDS011;59961;50.232;8.616;2023-08-01T10:43:00;3.25;;;1.25;;
72087;SDS011;59961;50.232;8.616;2023-08-01T10:45:25;2.90;;;0.80;;
72087;SDS011;59961;50.232;8.616;2023-08-01T10:47:52;2.72;;;0.88;;
72087;SDS011;59961;50.232;8.616;2023-08-01T10:50:18;3.57;;;1.17;;
72087;SDS011;59961;50.232;8.616;2023-08-01T10:52:43;3.30;;;1.20;;
72087;SDS011;59961;50.232;8.616;2023-08-01T10:55:08;2.73;;;1.40;;
72087;SDS011;59961;50.232;8.616;2023-08-01T10:57:35;4.10;;;1.40;;
72087;SDS011;59961;50.232;8.616;2023-08-01T11:00:00;2.33;;;0.93;;
72087;SDS011;59961;50.232;8.616;2023-08-01T11:02:26;3.50;;;1.13;;
72087;SDS011;59961;50.232;8.616;2023-08-01T11:04:55;3.23;;;1.10;;
72087;SDS011;59961;50.232;8.616;2023-08-01T11:07:20;3.88;;;1.48;;
72087;SDS011;59961;50.232;8.616;2023-08-01T11:09:45;4.50;;;1.45;;
72087;SDS011;59961;50.232;8.616;2023-08-01T11:12:10;3.53;;;1.10;;
72087;SDS011;59961;50.232;8.616;2023-08-01T11:14:36;3.00;;;1.30;;
72087;SDS011;59961;50.232;8.616;2023-08-01T11:17:02;3.17;;;1.52;;
72087;SDS011;59961;50.232;8.616;2023-08-01T11:19:27;2.77;;;1.20;;
72087;SDS011;59961;50.232;8.616;2023-08-01T11:21:53;4.65;;;1.20;;
72087;SDS011;59961;50.232;8.616;2023-08-01T11:24:21;4.45;;;1.35;;
72087;SDS011;59961;50.232;8.616;2023-08-01T11:26:47;4.90;;;1.30;;
72087;SDS011;59961;50.232;8.616;2023-08-01T11:29:12;2.83;;;1.00;;
72087;SDS011;59961;50.232;8.616;2023-08-01T11:31:38;3.38;;;1.30;;
72087;SDS011;59961;50.232;8.616;2023-08-01T11:34:04;2.33;;;0.97;;
72087;SDS011;59961;50.232;8.616;2023-08-01T11:36:29;2.42;;;0.90;;
72087;SDS011;59961;50.232;8.616;2023-08-01T11:38:56;3.47;;;1.30;;
72087;SDS011;59961;50.232;8.616;2023-08-01T11:41:22;1.88;;;0.93;;
72087;SDS011;59961;50.232;8.616;2023-08-01T11:43:48;2.47;;;1.23;;
72087;SDS011;59961;50.232;8.616;2023-08-01T11:46:13;2.28;;;0.73;;
72087;SDS011;59961;50.232;8.616;2023-08-01T11:48:38;4.03;;;0.83;;
72087;SDS011;59961;50.232;8.616;2023-08-01T11:51:04;3.37;;;1.20;;
72087;SDS011;59961;50.232;8.616;2023-08-01T11:53:29;2.50;;;1.10;;
72087;SDS011;59961;50.232;8.616;2023-08-01T11:55:55;4.22;;;1.30;;
72087;SDS011;59961;50.232;8.616;2023-08-01T11:58:30;2.60;;;1.30;;
72087;SDS011;59961;50.232;8.616;2023-08-01T12:01:02;3.40;;;1.10;;
72087;SDS011;59961;50.232;8.616;2023-08-01T12:03:27;3.28;;;1.02;;
72087;SDS011;59961;50.232;8.616;2023-08-01T12:06:01;6.03;;;1.70;;
72087;SDS011;59961;50.232;8.616;2023-08-01T12:08:26;3.03;;;1.23;;
72087;SDS011;59961;50.232;8.616;2023-08-01T12:10:57;5.28;;;1.27;;
72087;SDS011;59961;50.232;8.616;2023-08-01T12:13:22;3.30;;;1.20;;
72087;SDS011;59961;50.232;8.616;2023-08-01T12:15:52;3.42;;;1.50;;
72087;SDS011;59961;50.232;8.616;2023-08-01T12:18:24;3.67;;;1.33;;
72087;SDS011;59961;50.232;8.616;2023-08-01T12:20:50;2.60;;;1.10;;
72087;SDS011;59961;50.232;8.616;2023-08-01T12:23:16;3.13;;;1.20;;
72087;SDS011;59961;50.232;8.616;2023-08-01T12:25:41;3.75;;;1.55;;
72087;SDS011;59961;50.232;8.616;2023-08-01T12:28:07;2.87;;;1.13;;
72087;SDS011;59961;50.232;8.616;2023-08-01T12:30:32;2.40;;;1.30;;
72087;SDS011;59961;50.232;8.616;2023-08-01T12:32:57;4.28;;;1.20;;
72087;SDS011;59961;50.232;8.616;2023-08-01T12:35:22;2.63;;;0.93;;
72087;SDS011;59961;50.232;8.616;2023-08-01T12:37:47;2.67;;;1.17;;
72087;SDS011;59961;50.232;8.616;2023-08-01T12:40:13;4.07;;;1.20;;
72087;SDS011;59961;50.232;8.616;2023-08-01T12:42:38;5.30;;;1.53;;
72087;SDS011;59961;50.232;8.616;2023-08-01T12:45:03;4.10;;;0.80;;
72087;SDS011;59961;50.232;8.616;2023-08-01T12:47:28;2.50;;;0.93;;
72087;SDS011;59961;50.232;8.616;2023-08-01T12:49:53;2.23;;;0.87;;
72087;SDS011;59961;50.232;8.616;2023-08-01T12:52:23;4.10;;;1.30;;
72087;SDS011;59961;50.232;8.616;2023-08-01T12:54:49;2.05;;;0.77;;
72087;SDS011;59961;50.232;8.616;2023-08-01T12:57:14;2.70;;;0.60;;
72087;SDS011;59961;50.232;8.616;2023-08-01T12:59:39;3.63;;;1.20;;
72087;SDS011;59961;50.232;8.616;2023-08-01T13:02:05;2.15;;;0.85;;
72087;SDS011;59961;50.232;8.616;2023-08-01T13:04:33;2.70;;;1.27;;
72087;SDS011;59961;50.232;8.616;2023-08-01T13:06:58;3.10;;;1.07;;
72087;SDS011;59961;50.232;8.616;2023-08-01T13:09:23;3.95;;;1.20;;
72087;SDS011;59961;50.232;8.616;2023-08-01T13:11:48;2.23;;;0.70;;
72087;SDS011;59961;50.232;8.616;2023-08-01T13:14:13;2.95;;;1.00;;
72087;SDS011;59961;50.232;8.616;2023-08-01T13:16:39;2.47;;;1.03;;
72087;SDS011;59961;50.232;8.616;2023-08-01T13:19:04;2.72;;;0.85;;
72087;SDS011;59961;50.232;8.616;2023-08-01T13:21:32;3.70;;;2.07;;
72087;SDS011;59961;50.232;8.616;2023-08-01T13:23:59;3.80;;;1.15;;
72087;SDS011;59961;50.232;8.616;2023-08-01T13:26:24;3.47;;;1.10;;
72087;SDS011;59961;50.232;8.616;2023-08-01T13:28:49;2.25;;;1.10;;
72087;SDS011;59961;50.232;8.616;2023-08-01T13:31:14;2.80;;;1.40;;
72087;SDS011;59961;50.232;8.616;2023-08-01T13:33:39;1.40;;;0.80;;
72087;SDS011;59961;50.232;8.616;2023-08-01T13:36:04;2.50;;;0.73;;
72087;SDS011;59961;50.232;8.616;2023-08-01T13:38:29;2.60;;;0.70;;
72087;SDS011;59961;50.232;8.616;2023-08-01T13:40:58;3.03;;;1.10;;
72087;SDS011;59961;50.232;8.616;2023-08-01T13:43:23;4.80;;;1.40;;
72087;SDS011;59961;50.232;8.616;2023-08-01T13:45:48;3.67;;;1.30;;
72087;SDS011;59961;50.232;8.616;2023-08-01T13:48:14;3.93;;;1.37;;
72087;SDS011;59961;50.232;8.616;2023-08-01T13:50:39;3.60;;;1.27;;
72087;SDS011;59961;50.232;8.616;2023-08-01T13:53:04;4.23;;;1.40;;
72087;SDS011;59961;50.232;8.616;2023-08-01T13:55:32;3.03;;;1.50;;
72087;SDS011;59961;50.232;8.616;2023-08-01T13:57:57;4.93;;;1.58;;
72087;SDS011;59961;50.232;8.616;2023-08-01T14:00:22;5.22;;;1.60;;
72087;SDS011;59961;50.232;8.616;2023-08-01T14:02:49;4.47;;;1.47;;
72087;SDS011;59961;50.232;8.616;2023-08-01T14:05:14;3.88;;;1.63;;
72087;SDS011;59961;50.232;8.616;2023-08-01T14:07:39;6.00;;;1.70;;
72087;SDS011;59961;50.232;8.616;2023-08-01T14:10:04;5.28;;;1.60;;
72087;SDS011;59961;50.232;8.616;2023-08-01T14:12:30;3.37;;;1.33;;
72087;SDS011;59961;50.232;8.616;2023-08-01T14:14:55;2.93;;;1.40;;
72087;SDS011;59961;50.232;8.616;2023-08-01T14:17:20;2.47;;;1.20;;
72087;SDS011;59961;50.232;8.616;2023-08-01T14:19:46;3.80;;;1.23;;
72087;SDS011;59961;50.232;8.616;2023-08-01T14:22:11;3.78;;;1.45;;
72087;SDS011;59961;50.232;8.616;2023-08-01T14:24:36;3.47;;;1.23;;
72087;SDS011;59961;50.232;8.616;2023-08-01T14:27:01;3.60;;;1.27;;
72087;SDS011;59961;50.232;8.616;2023-08-01T14:29:26;3.97;;;1.80;;
72087;SDS011;59961;50.232;8.616;2023-08-01T14:31:51;5.07;;;2.33;;
72087;SDS011;59961;50.232;8.616;2023-08-01T14:34:17;3.55;;;1.33;;
72087;SDS011;59961;50.232;8.616;2023-08-01T14:36:42;4.50;;;1.33;;
72087;SDS011;59961;50.232;8.616;2023-08-01T14:39:07;5.43;;;1.30;;